TimeMDT,TemperatureF,Dew PointF,Humidity,Sea Level PressureIn,VisibilityMPH,Wind Direction,Wind SpeedMPH,Gust SpeedMPH,PrecipitationIn,Events,Conditions,WindDirDegrees,DateUTC
12:53 AM,36.0,15.1,43,29.99,10.0,West,13.8,-,N/A,,Clear,280,2013-04-11 06:53:00
1:53 AM,34.0,17.1,50,29.99,10.0,West,9.2,-,N/A,,Clear,270,2013-04-11 07:53:00
2:53 AM,34.0,17.1,50,29.95,10.0,WNW,11.5,-,N/A,,Clear,290,2013-04-11 08:53:00
3:53 AM,32.0,18.0,56,29.94,10.0,West,9.2,-,N/A,,Clear,280,2013-04-11 09:53:00
4:53 AM,32.0,17.1,54,29.94,10.0,NW,3.5,-,N/A,,Clear,320,2013-04-11 10:53:00
5:53 AM,32.0,17.1,54,29.91,10.0,West,4.6,-,N/A,,Clear,270,2013-04-11 11:53:00
6:53 AM,30.9,17.1,57,29.95,10.0,Calm,Calm,-,N/A,,Clear,0,2013-04-11 12:53:00
7:53 AM,35.1,19.9,54,29.97,10.0,Calm,Calm,-,N/A,,Clear,0,2013-04-11 13:53:00
8:53 AM,39.0,19.0,45,29.97,10.0,Calm,Calm,-,N/A,,Clear,0,2013-04-11 14:53:00
9:53 AM,45.0,19.9,37,29.95,10.0,West,10.4,-,N/A,,Overcast,280,2013-04-11 15:53:00
11:53 AM,51.1,30.0,44,29.90,10.0,West,20.7,26.5,N/A,,Mostly Cloudy,280,2013-04-11 17:53:00
12:53 PM,52.0,34.0,50,29.89,10.0,WNW,18.4,27.6,N/A,,Overcast,290,2013-04-11 18:53:00
1:53 PM,55.9,34.0,44,29.86,10.0,West,18.4,29.9,N/A,,Mostly Cloudy,280,2013-04-11 19:53:00
2:53 PM,54.0,34.0,47,29.86,10.0,West,28.8,36.8,0.00,,Overcast,280,2013-04-11 20:53:00
3:53 PM,55.0,28.9,37,29.85,10.0,NW,12.7,23.0,N/A,,Overcast,310,2013-04-11 21:53:00
4:53 PM,57.0,27.0,32,29.83,10.0,WNW,17.3,31.1,N/A,,Scattered Clouds,300,2013-04-11 22:53:00
5:53 PM,57.0,28.0,33,29.83,10.0,West,17.3,24.2,N/A,,Partly Cloudy,280,2013-04-11 23:53:00
6:53 PM,55.0,30.9,40,29.83,10.0,NW,11.5,-,N/A,,Clear,310,2013-04-12 00:53:00
7:53 PM,51.1,32.0,48,29.85,10.0,WNW,8.1,-,N/A,,Clear,290,2013-04-12 01:53:00
8:53 PM,48.0,30.9,52,29.86,10.0,WNW,4.6,-,N/A,,Overcast,290,2013-04-12 02:53:00
9:53 PM,48.0,32.0,54,29.85,10.0,WSW,3.5,-,N/A,,Mostly Cloudy,250,2013-04-12 03:53:00
10:53 PM,46.9,30.9,54,29.86,10.0,Calm,Calm,-,N/A,,Overcast,0,2013-04-12 04:53:00
11:53 PM,44.1,30.9,60,29.86,10.0,West,3.5,-,N/A,,Partly Cloudy,270,2013-04-12 05:53:00